• Join FlightAware (Why Join?)
  • Login
  • US Flag 
12:11PM EDT


 

Airport Tracker/Info


-or-


 

Live Flight TrackerFlight Track Log ✈ N913CS ✈ 14-Mar-2014 ✈ KCID - KBNA

Flight Track Log - Related Links

Times and Time Zones

All times are in EDT time to prevent confusion due to time zone crossing. See the N913CS flight status page for this flight to view local times or setup timezone preferences in your user account.

Time Position Orientation Groundspeed Altitude Reporting Facility
EDT Latitude Longitude Course Direction KTS MPH feet Rate Location/Type
11:37AM 41.8708 -91.7633 159° South 176 203 3,700  Level Chicago Center
11:38AM 41.8350 -91.8219 231° Southwest 221 254 5,900 3,000 Climbing Chicago Center
11:39AM 41.7450 -91.7922 166° South 288 331 9,900 3,180 Climbing Chicago Center
11:40AM 41.6728 -91.7086 139° Southeast 340 391 12,500 2,160 Climbing Chicago Center
11:41AM 41.5936 -91.6192 140° Southeast 370 426 14,400 1,800 Climbing Chicago Center
11:42AM 41.5072 -91.5233 140° Southeast 403 464 16,300 1,920 Climbing Chicago Center
11:43AM 41.4203 -91.2185 159° South  Level FlightAware Approximate
11:43AM 41.4178 -91.4231 140° Southeast 420 483 18,400  Level Chicago Center
11:44AM 41.3197 -91.3147 140° Southeast 434 499 20,600 2,040 Climbing Chicago Center
11:45AM 41.2272 -91.2117 140° Southeast 434 499 22,700 1,140 Climbing Chicago Center
11:46AM 41.1131 -91.0861 140° Southeast 445 512 23,000 120 Climbing Chicago Center
11:48AM 41.0164 -90.9800 140° Southeast 451 519 23,000  Level Chicago Center
11:49AM 40.9178 -90.8719 140° Southeast 459 528 23,000 60 Level Chicago Center
11:50AM 40.8217 -90.7672 140° Southeast 451 519 23,200 720 Climbing Chicago Center
11:51AM 40.7261 -90.6644 141° Southeast 446 513 24,600 1,260 Climbing Chicago Center
11:52AM 40.6308 -90.5606 140° Southeast 447 514 25,900 1,200 Climbing Chicago Center
11:53AM 40.5136 -90.4333 140° Southeast 456 525 27,100 1,080 Climbing Chicago Center
11:54AM 40.4136 -90.3267 141° Southeast 464 534 28,200 1,020 Climbing Chicago Center
11:55AM 40.3139 -90.2211 141° Southeast 466 536 29,300 1,200 Climbing Chicago Center
11:56AM 40.2139 -90.1147 141° Southeast 463 533 30,700 1,320 Climbing Kansas City Center
11:57AM 40.1158 -90.0103 141° Southeast 463 533 32,000 600 Climbing Kansas City Center
11:58AM 40.0164 -89.9050 141° Southeast 462 532 32,000 240 Level Kansas City Center
11:59AM 39.8947 -89.7783 141° Southeast 463 533 32,500 480 Climbing Kansas City Center
12:00PM 39.7931 -89.6717 141° Southeast 466 536 33,000 240 Climbing Kansas City Center
12:01PM 39.6889 -89.5619 141° Southeast 466 536 33,000  Level Kansas City Center
12:02PM 39.5867 -89.4567 142° Southeast 467 537 33,000 60 Level Kansas City Center
12:03PM 39.4864 -89.3522 141° Southeast 466 536 33,200 420 Climbing Kansas City Center
12:04PM 39.3856 -89.2481 141° Southeast 466 536 33,900 780 Climbing Kansas City Center
12:05PM 39.2847 -89.1458 142° Southeast 463 533 34,900 480 Climbing Kansas City Center
12:06PM 39.1633 -89.0214 142° Southeast 463 533 35,000  Climbing Kansas City Center
12:07PM 39.0631 -88.9203 142° Southeast 461 531 35,000  Level Kansas City Center
12:08PM 38.9667 -88.8200 141° Southeast 451 519 35,000  Level Kansas City Center
12:09PM 38.8675 -88.7192 142° Southeast 451 519 35,000  Level Kansas City Center
12:10PM 38.7572 -88.6078 142° Southeast 454 522 35,000  Level Kansas City Center
12:11PM 38.6550 -88.5067 142° Southeast 459 528 35,000  Level Kansas City Center
12:12PM 38.5536 -88.4056 142° Southeast 459 528 35,000  Level Kansas City Center
12:13PM 38.4508 -88.3053 143° Southeast 460 529 35,000  Level Kansas City Center
12:14PM 38.3503 -88.2053 142° Southeast 460 529 35,000 -120 Level Kansas City Center
12:16PM 38.2122 -88.0678 142° Southeast 456 525 34,800 -600 Descending Indianapolis Center
12:17PM 38.1125 -87.9717 143° Southeast 454 522 33,700 -1,320 Descending Indianapolis Center
12:18PM 38.0097 -87.8714 142° Southeast 460 529 32,100 -1,560 Descending Indianapolis Center
12:19PM 37.9078 -87.7719 142° Southeast 462 532 30,600 -1,620 Descending Indianapolis Center
12:20PM 37.8075 -87.6747 143° Southeast 461 531 28,800 -1,800 Descending Indianapolis Center
12:21PM 37.7103 -87.5808 143° Southeast 453 521 27,000 -2,100 Descending Indianapolis Center
12:22PM 37.5875 -87.4622 143° Southeast 465 535 24,600 -1,980 Descending Indianapolis Center
12:23PM 37.4878 -87.3650 142° Southeast 458 527 23,000 -1,260 Descending Indianapolis Center
12:24PM 37.3914 -87.2733 143° Southeast 438 504 22,000 -1,260 Descending Indianapolis Center
12:25PM 37.2789 -87.2375 166° South 418 481 20,500 -1,500 Descending Indianapolis Center
12:26PM 37.1714 -87.2108 169° South 395 455 18,900 -1,980 Descending Indianapolis Center
12:27PM 37.0850 -87.1867 167° South 384 442 16,800 -2,700 Descending Memphis Center
12:28PM 36.9836 -87.1600 168° South 373 429 13,800 -2,640 Descending Memphis Center
12:29PM 36.8856 -87.1347 168° South 363 418 11,400 -1,380 Descending Memphis Center
12:30PM 36.7853 -87.0797 156° South 341 392 11,000 -240 Descending Memphis Center
12:31PM 36.7031 -87.0275 153° Southeast 334 384 11,000  Level Memphis Center
12:32PM 36.6186 -86.9764 154° Southeast 333 383 11,000 -420 Level Memphis Center
12:33PM 36.5389 -86.9019 143° Southeast 352 405 10,200 -1,500 Descending Memphis Center
12:34PM 36.4742 -86.8253 136° Southeast 325 374 7,900 -2,160 Descending Memphis Center
12:35PM 36.4156 -86.7564 137° Southeast 290 334 5,800 -1,800 Descending Memphis Center
12:36PM 36.3594 -86.6983 140° Southeast 262 302 4,200 -1,320 Descending Memphis Center
12:37PM 36.2978 -86.6658 157° South 240 276 3,100 -600 Descending Memphis Center
12:38PM 36.2417 -86.6603 175° South 205 236 3,000 -480 Descending Memphis Center
12:39PM 36.1931 -86.6594 179° South 180 207 2,200 -960 Descending Memphis Center
12:40PM 36.1417 -86.6722 191° South 164 189 1,100 -720 Descending Memphis Center
12:41PM 36.1125 -86.6850 199° South 152 175 800 -300 Descending Memphis Center
12:43PM 36.1167 -86.6667 39° Northeast  Level FlightAware Approximate